createdAt,value
2023-10-10T00:01:48.326Z,25.63
2023-10-10T00:04:20.692Z,28.90
2023-10-10T00:06:53.206Z,30.90
2023-10-10T00:09:27.618Z,25.88
2023-10-10T00:11:59.473Z,32.70
2023-10-10T00:14:31.260Z,31.90
2023-10-10T00:17:03.153Z,27.58
2023-10-10T00:19:45.329Z,24.88
2023-10-10T00:22:19.019Z,29.50
2023-10-10T00:24:50.782Z,27.52
2023-10-10T00:27:25.045Z,28.92
2023-10-10T00:29:56.862Z,29.60
2023-10-10T00:32:30.728Z,29.63
2023-10-10T00:35:03.941Z,30.88
2023-10-10T00:37:36.434Z,31.65
2023-10-10T00:40:12.160Z,31.83
2023-10-10T00:42:43.981Z,30.73
2023-10-10T00:45:16.022Z,29.63
2023-10-10T00:47:49.210Z,27.83
2023-10-10T00:50:26.211Z,27.52
2023-10-10T00:52:58.334Z,29.80
2023-10-10T00:55:34.906Z,28.25
2023-10-10T00:58:09.147Z,24.00
2023-10-10T01:00:47.669Z,27.73
2023-10-10T01:03:22.968Z,27.45
2023-10-10T01:05:55.503Z,26.50
2023-10-10T01:08:32.734Z,28.85
2023-10-10T01:11:06.769Z,26.40
2023-10-10T01:13:41.515Z,29.80
2023-10-10T01:16:13.486Z,28.88
2023-10-10T01:18:58.884Z,25.52
2023-10-10T01:21:32.374Z,26.38
2023-10-10T01:24:13.171Z,27.80
2023-10-10T01:26:48.837Z,28.50
2023-10-10T01:29:28.574Z,26.35
2023-10-10T01:32:00.726Z,30.30
2023-10-10T01:34:32.700Z,28.55
2023-10-10T01:37:09.174Z,27.50
2023-10-10T01:40:19.260Z,29.15
2023-10-10T01:42:55.710Z,27.65
2023-10-10T01:45:31.278Z,28.80
2023-10-10T01:48:09.906Z,27.48
2023-10-10T01:50:42.244Z,30.85
2023-10-10T01:53:14.066Z,30.63
2023-10-10T01:55:48.943Z,30.13
2023-10-10T01:58:21.546Z,31.42
2023-10-10T02:00:55.948Z,30.70
2023-10-10T02:03:29.445Z,31.88
2023-10-10T02:06:01.758Z,28.52
2023-10-10T02:08:36.393Z,26.45
2023-10-10T02:11:10.108Z,26.90
2023-10-10T02:13:46.037Z,27.02
2023-10-10T02:16:24.939Z,29.90
2023-10-10T02:19:00.598Z,29.20
2023-10-10T02:21:44.512Z,30.27
2023-10-10T02:24:45.433Z,29.77
2023-10-10T02:27:21.549Z,30.55
2023-10-10T02:29:54.886Z,27.15
2023-10-10T02:32:30.918Z,23.77
2023-10-10T02:35:28.340Z,28.63
2023-10-10T02:38:05.179Z,28.45
2023-10-10T02:40:44.141Z,27.52
2023-10-10T02:43:34.886Z,28.67
2023-10-10T02:46:07.272Z,25.50
2023-10-10T02:48:43.541Z,26.33
2023-10-10T02:51:17.304Z,26.50
2023-10-10T02:53:49.264Z,26.10
2023-10-10T02:56:21.500Z,27.45
2023-10-10T02:58:55.767Z,26.38
2023-10-10T03:01:46.027Z,28.02
2023-10-10T03:04:19.094Z,27.40
2023-10-10T03:06:51.033Z,26.60
2023-10-10T03:09:43.080Z,27.90
2023-10-10T03:12:18.991Z,29.33
2023-10-10T03:14:54.685Z,23.73
2023-10-10T03:17:45.689Z,24.27
2023-10-10T03:20:35.894Z,27.23
2023-10-10T03:23:14.113Z,28.77
2023-10-10T03:25:56.051Z,28.02
2023-10-10T03:28:27.933Z,25.23
2023-10-10T03:31:24.380Z,23.52
2023-10-10T03:34:05.082Z,22.95
2023-10-10T03:36:46.535Z,26.20
2023-10-10T03:39:25.488Z,27.27
2023-10-10T03:42:15.748Z,28.70
2023-10-10T03:45:06.224Z,25.35
2023-10-10T03:47:56.647Z,27.33
2023-10-10T03:50:47.105Z,28.50
2023-10-10T03:53:37.601Z,27.02
2023-10-10T03:56:34.405Z,26.63
2023-10-10T03:59:25.237Z,26.38
2023-10-10T04:05:23.785Z,28.55
2023-10-10T04:08:16.604Z,29.67
2023-10-10T04:11:07.067Z,31.02
2023-10-10T04:13:57.552Z,30.40
2023-10-10T04:16:47.935Z,29.20
2023-10-10T04:19:38.293Z,30.15
2023-10-10T04:22:28.665Z,31.17
2023-10-10T04:25:19.121Z,28.73
2023-10-10T04:28:09.433Z,34.25
2023-10-10T04:31:00.014Z,29.65
2023-10-10T04:33:50.095Z,34.47
2023-10-10T04:36:40.517Z,34.22
2023-10-10T04:39:30.896Z,33.25
2023-10-10T04:42:21.300Z,34.08
2023-10-10T04:45:11.614Z,33.88
2023-10-10T04:48:02.114Z,33.83
2023-10-10T04:50:52.565Z,34.80
2023-10-10T04:53:43.143Z,35.88
2023-10-10T04:56:33.650Z,31.98
2023-10-10T04:59:24.126Z,34.15
2023-10-10T05:02:14.415Z,32.92
2023-10-10T05:05:04.914Z,33.88
2023-10-10T05:07:55.324Z,35.95
2023-10-10T05:10:45.776Z,32.05
2023-10-10T05:13:36.123Z,32.63
2023-10-10T05:16:26.607Z,35.22
2023-10-10T05:19:16.773Z,32.40
2023-10-10T05:22:07.236Z,33.60
2023-10-10T05:24:44.604Z,35.63
2023-10-10T05:27:16.493Z,32.78
2023-10-10T05:29:51.340Z,33.63
2023-10-10T05:32:24.469Z,31.83
2023-10-10T05:34:58.557Z,32.75
2023-10-10T05:37:32.986Z,32.60
2023-10-10T05:40:08.322Z,25.88
2023-10-10T05:42:40.838Z,31.80
2023-10-10T05:45:15.202Z,30.63
2023-10-10T05:47:47.148Z,28.80
2023-10-10T05:50:20.096Z,30.42
2023-10-10T05:52:53.136Z,31.13
2023-10-10T05:55:24.939Z,32.10
2023-10-10T05:57:58.725Z,32.95
2023-10-10T06:00:37.861Z,36.35
2023-10-10T06:03:11.566Z,40.38
2023-10-10T06:05:47.312Z,39.05
2023-10-10T06:08:19.397Z,41.53
2023-10-10T06:10:51.212Z,38.65
2023-10-10T06:13:23.933Z,36.72
2023-10-10T06:15:55.824Z,39.60
2023-10-10T06:18:27.714Z,38.00
2023-10-10T06:23:38.872Z,36.15
2023-10-10T06:26:11.180Z,32.95
2023-10-10T06:28:49.553Z,31.08
2023-10-10T06:31:22.318Z,35.47
2023-10-10T06:33:59.314Z,31.63
2023-10-10T06:36:34.007Z,31.40
2023-10-10T06:39:06.250Z,28.00
2023-10-10T06:41:40.596Z,32.25
2023-10-10T06:44:15.448Z,27.52
2023-10-10T06:46:50.746Z,29.63
2023-10-10T06:49:23.769Z,28.70
2023-10-10T06:51:56.843Z,31.10
2023-10-10T06:54:35.899Z,26.75
2023-10-10T06:57:10.479Z,31.25
2023-10-10T06:59:42.370Z,27.20
2023-10-10T07:02:20.438Z,26.60
2023-10-10T07:04:55.101Z,24.60
2023-10-10T07:07:27.868Z,24.02
2023-10-10T07:10:00.240Z,21.98
2023-10-10T07:12:33.210Z,25.45
2023-10-10T07:15:07.994Z,21.85
2023-10-10T07:17:40.610Z,21.67
2023-10-10T07:20:12.515Z,20.40
2023-10-10T07:22:46.167Z,17.60
2023-10-10T07:25:33.638Z,18.88
2023-10-10T07:28:06.583Z,16.55
2023-10-10T07:30:44.103Z,16.83
2023-10-10T07:33:15.883Z,14.80
2023-10-10T07:35:54.969Z,16.15
2023-10-10T07:38:30.413Z,14.00
2023-10-10T07:41:06.215Z,16.75
2023-10-10T07:43:39.352Z,15.18
2023-10-10T07:46:23.984Z,16.92
2023-10-10T07:48:55.825Z,14.32
2023-10-10T07:51:30.234Z,13.80
2023-10-10T07:54:14.368Z,11.90
2023-10-10T07:56:46.989Z,10.55
2023-10-10T07:59:19.012Z,10.70
2023-10-10T08:01:55.345Z,10.80
2023-10-10T08:04:27.185Z,10.80
2023-10-10T08:06:58.957Z,11.85
2023-10-10T08:09:31.317Z,10.93
2023-10-10T08:12:06.243Z,10.68
2023-10-10T08:14:41.105Z,8.98
2023-10-10T08:17:27.557Z,8.98
2023-10-10T08:20:19.406Z,6.38
2023-10-10T08:22:51.153Z,6.05
2023-10-10T08:25:24.482Z,6.43
2023-10-10T08:27:57.205Z,6.68
2023-10-10T08:30:29.076Z,6.18
2023-10-10T08:33:01.685Z,5.63
2023-10-10T08:35:40.559Z,4.72
2023-10-10T08:38:14.735Z,4.43
2023-10-10T08:40:59.493Z,4.55
2023-10-10T08:43:33.101Z,4.70
2023-10-10T08:46:05.795Z,4.38
2023-10-10T08:48:38.788Z,4.75
2023-10-10T08:51:10.752Z,4.63
2023-10-10T08:53:42.578Z,5.30
2023-10-10T08:56:16.588Z,4.95
2023-10-10T08:58:48.430Z,4.90
2023-10-10T09:01:20.353Z,5.72
2023-10-10T09:03:52.225Z,6.30
2023-10-10T09:06:24.031Z,6.10
2023-10-10T09:08:57.066Z,6.32
2023-10-10T09:11:31.937Z,5.53
2023-10-10T09:14:11.338Z,5.70
2023-10-10T09:16:43.385Z,5.18
2023-10-10T09:19:16.180Z,4.15
2023-10-10T09:21:57.677Z,5.35
2023-10-10T09:24:38.913Z,4.80
2023-10-10T09:27:29.750Z,5.20
2023-10-10T09:30:10.068Z,4.95
2023-10-10T09:32:44.197Z,4.25
2023-10-10T09:35:16.123Z,4.32
2023-10-10T09:37:48.345Z,4.68
2023-10-10T09:40:20.854Z,4.25
2023-10-10T09:43:02.701Z,4.30
2023-10-10T09:45:54.432Z,4.50
2023-10-10T09:48:55.613Z,4.07
2023-10-10T09:51:48.444Z,3.88
2023-10-10T09:54:26.859Z,3.80
2023-10-10T09:57:00.322Z,3.67
2023-10-10T09:59:33.912Z,4.22
2023-10-10T10:02:06.644Z,3.80
2023-10-10T10:04:43.477Z,4.30
2023-10-10T10:07:29.026Z,4.65
2023-10-10T10:10:49.968Z,4.40
2023-10-10T10:13:57.889Z,4.20
2023-10-10T10:16:47.929Z,4.90
2023-10-10T10:19:24.138Z,5.35
2023-10-10T10:22:09.720Z,4.63
2023-10-10T10:24:47.375Z,5.22
2023-10-10T10:27:36.661Z,5.28
2023-10-10T10:30:20.836Z,4.80
2023-10-10T10:32:56.989Z,5.35
2023-10-10T10:35:58.508Z,5.63
2023-10-10T10:38:33.205Z,6.57
2023-10-10T10:41:18.535Z,4.88
2023-10-10T10:43:53.335Z,5.18
2023-10-10T10:46:41.192Z,4.18
2023-10-10T10:49:16.609Z,11.40
2023-10-10T10:51:48.894Z,4.28
2023-10-10T10:54:38.742Z,4.13
2023-10-10T10:57:43.126Z,4.10
2023-10-10T11:00:41.911Z,3.83
2023-10-10T11:03:14.736Z,3.90
2023-10-10T11:05:46.748Z,4.47
2023-10-10T11:08:50.620Z,3.47
2023-10-10T11:11:37.160Z,2.80
2023-10-10T11:14:20.561Z,3.38
2023-10-10T11:16:58.353Z,2.80
2023-10-10T11:19:31.523Z,3.33
2023-10-10T11:22:06.891Z,3.17
2023-10-10T11:24:38.920Z,2.92
2023-10-10T11:27:13.272Z,3.10
2023-10-10T11:29:51.599Z,2.85
2023-10-10T11:32:30.663Z,3.03
2023-10-10T11:35:17.602Z,3.17
2023-10-10T11:37:50.367Z,3.40
2023-10-10T11:40:42.404Z,3.28
2023-10-10T11:43:14.474Z,2.70
2023-10-10T11:45:52.967Z,3.08
2023-10-10T11:48:27.771Z,2.60
2023-10-10T11:51:00.903Z,2.78
2023-10-10T11:53:38.181Z,2.58
2023-10-10T11:56:15.220Z,2.90
2023-10-10T11:58:50.875Z,2.70
2023-10-10T12:01:42.667Z,3.20
2023-10-10T12:04:40.345Z,2.53
2023-10-10T12:07:15.279Z,2.85
2023-10-10T12:09:48.923Z,2.80
2023-10-10T12:12:22.873Z,3.33
2023-10-10T12:14:55.092Z,3.47
2023-10-10T12:17:29.600Z,5.13
2023-10-10T12:20:01.440Z,3.90
2023-10-10T12:22:33.247Z,3.78
2023-10-10T12:25:06.292Z,4.47
2023-10-10T12:27:38.064Z,3.92
2023-10-10T12:30:14.387Z,4.10
2023-10-10T12:32:50.866Z,4.70
2023-10-10T12:35:25.750Z,4.38
2023-10-10T12:38:02.638Z,4.25
2023-10-10T12:40:34.927Z,3.80
2023-10-10T12:43:09.226Z,3.90
2023-10-10T12:45:41.009Z,4.25
2023-10-10T12:48:21.814Z,4.20
2023-10-10T12:50:53.988Z,3.97
2023-10-10T12:53:32.048Z,4.30
2023-10-10T12:56:03.877Z,4.40
2023-10-10T12:58:35.667Z,3.75
2023-10-10T13:01:07.444Z,3.50
2023-10-10T13:03:39.826Z,3.80
2023-10-10T13:06:11.747Z,3.60
2023-10-10T13:09:04.386Z,3.53
2023-10-10T13:11:45.529Z,3.28
2023-10-10T13:14:20.585Z,4.10
2023-10-10T13:16:52.863Z,3.65
2023-10-10T13:19:24.820Z,3.90
2023-10-10T13:21:56.620Z,3.80
2023-10-10T13:24:28.420Z,3.70
2023-10-10T13:27:00.239Z,3.40
2023-10-10T13:29:32.088Z,3.55
2023-10-10T13:32:06.158Z,3.53
2023-10-10T13:34:39.111Z,3.72
2023-10-10T13:37:10.976Z,3.72
2023-10-10T13:39:49.242Z,4.00
2023-10-10T13:42:22.095Z,3.78
2023-10-10T13:45:02.702Z,3.58
2023-10-10T13:47:34.602Z,3.53
2023-10-10T13:50:26.829Z,4.13
2023-10-10T13:53:00.801Z,4.30
2023-10-10T13:55:35.566Z,3.42
2023-10-10T13:58:13.521Z,3.92
2023-10-10T14:00:57.120Z,4.13
2023-10-10T14:03:36.853Z,3.47
2023-10-10T14:06:13.799Z,3.55
2023-10-10T14:08:45.777Z,3.17
2023-10-10T14:11:25.029Z,4.20
2023-10-10T14:13:57.088Z,3.47
2023-10-10T14:16:31.444Z,2.97
2023-10-10T14:19:03.288Z,3.40
2023-10-10T14:21:39.996Z,3.80
2023-10-10T14:24:15.366Z,3.70
2023-10-10T14:26:50.210Z,3.80
2023-10-10T14:29:22.251Z,3.25
2023-10-10T14:32:00.245Z,3.17
2023-10-10T14:34:36.488Z,3.28
2023-10-10T14:37:20.464Z,3.22
2023-10-10T14:40:01.093Z,2.95
2023-10-10T14:42:32.856Z,3.00
2023-10-10T14:45:08.020Z,4.38
2023-10-10T14:47:44.181Z,4.25
2023-10-10T14:50:16.010Z,3.95
2023-10-10T14:52:51.105Z,2.97
2023-10-10T14:55:25.808Z,3.08
2023-10-10T14:57:57.747Z,3.58
2023-10-10T15:00:30.200Z,3.25
2023-10-10T15:03:02.607Z,3.13
2023-10-10T15:05:34.504Z,3.40
2023-10-10T15:08:06.562Z,3.58
2023-10-10T15:10:42.308Z,3.47
2023-10-10T15:13:16.810Z,3.60
2023-10-10T15:15:49.659Z,4.05
2023-10-10T15:18:21.567Z,4.20
2023-10-10T15:20:53.980Z,4.22
2023-10-10T15:23:26.498Z,4.90
2023-10-10T15:26:13.084Z,5.05
2023-10-10T15:28:45.631Z,5.10
2023-10-10T15:31:17.428Z,5.60
2023-10-10T15:33:49.252Z,5.80
2023-10-10T15:36:21.124Z,6.60
2023-10-10T15:38:52.887Z,6.90
2023-10-10T15:41:26.680Z,6.10
2023-10-10T15:44:04.092Z,7.15
2023-10-10T15:46:38.857Z,7.38
2023-10-10T15:49:33.225Z,8.82
2023-10-10T15:52:06.281Z,8.52
2023-10-10T15:54:38.512Z,9.30
2023-10-10T15:57:10.972Z,9.45
2023-10-10T15:59:43.775Z,10.27
2023-10-10T16:02:15.916Z,9.43
2023-10-10T16:04:47.792Z,8.32
2023-10-10T16:07:19.660Z,7.82
2023-10-10T16:09:53.757Z,6.97
2023-10-10T16:12:25.586Z,6.47
2023-10-10T16:14:57.447Z,6.60
2023-10-10T16:17:30.154Z,5.95
2023-10-10T16:20:06.684Z,7.20
2023-10-10T16:22:40.992Z,7.55
2023-10-10T16:25:14.806Z,7.82
2023-10-10T16:27:46.563Z,8.88
2023-10-10T16:30:18.484Z,10.05
2023-10-10T16:32:51.005Z,11.18
2023-10-10T16:35:22.969Z,11.20
2023-10-10T16:37:55.123Z,10.52
2023-10-10T16:40:30.879Z,9.80
2023-10-10T16:43:03.583Z,12.05
2023-10-10T16:45:35.382Z,15.75
2023-10-10T16:48:10.096Z,15.40
2023-10-10T16:50:43.301Z,16.23
2023-10-10T16:53:15.184Z,17.42
2023-10-10T16:55:46.968Z,18.75
2023-10-10T16:58:18.976Z,19.30
2023-10-10T17:00:51.188Z,19.30
2023-10-10T17:03:24.010Z,23.40
2023-10-10T17:05:58.648Z,17.88
2023-10-10T17:08:33.534Z,17.25
2023-10-10T17:11:15.985Z,19.05
2023-10-10T17:13:48.412Z,19.23
2023-10-10T17:16:30.295Z,25.20
2023-10-10T17:19:16.333Z,26.30
2023-10-10T17:21:48.984Z,23.38
2023-10-10T17:24:21.385Z,16.80
2023-10-10T17:26:55.375Z,17.70
2023-10-10T17:29:28.071Z,16.27
2023-10-10T17:32:01.240Z,15.95
2023-10-10T17:34:34.897Z,15.45
2023-10-10T17:37:10.194Z,13.25
2023-10-10T17:39:41.994Z,14.55
2023-10-10T17:42:13.751Z,13.77
2023-10-10T17:44:46.050Z,14.80
2023-10-10T17:47:17.888Z,13.63
2023-10-10T17:49:49.694Z,13.95
2023-10-10T17:52:22.800Z,12.98
2023-10-10T17:54:54.787Z,13.90
2023-10-10T17:57:26.572Z,14.43
2023-10-10T17:59:58.507Z,12.48
2023-10-10T18:02:33.546Z,12.13
2023-10-10T18:05:06.934Z,9.93
2023-10-10T18:07:39.718Z,8.90
2023-10-10T18:10:12.805Z,10.60
2023-10-10T18:12:44.978Z,11.55
2023-10-10T18:15:20.279Z,12.10
2023-10-10T18:17:57.031Z,11.20
2023-10-10T18:20:31.169Z,11.23
2023-10-10T18:23:03.300Z,10.50
2023-10-10T18:25:39.269Z,9.75
2023-10-10T18:28:12.364Z,9.73
2023-10-10T18:30:46.927Z,10.05
2023-10-10T18:33:18.820Z,12.05
2023-10-10T18:35:50.742Z,12.02
2023-10-10T18:38:22.560Z,10.88
2023-10-10T18:40:56.118Z,11.35
2023-10-10T18:43:27.979Z,12.00
2023-10-10T18:46:01.590Z,11.43
2023-10-10T18:48:38.420Z,12.27
2023-10-10T18:51:14.762Z,13.18
2023-10-10T18:53:48.682Z,13.00
2023-10-10T18:56:20.550Z,13.52
2023-10-10T18:58:52.383Z,12.40
2023-10-10T19:01:24.368Z,12.35
2023-10-10T19:03:56.223Z,13.38
2023-10-10T19:06:28.094Z,12.05
2023-10-10T19:09:01.636Z,11.60
2023-10-10T19:11:33.588Z,12.02
2023-10-10T19:14:05.431Z,11.40
2023-10-10T19:16:40.363Z,11.80
2023-10-10T19:19:12.157Z,11.15
2023-10-10T19:21:46.498Z,11.02
2023-10-10T19:24:21.626Z,13.35
2023-10-10T19:26:54.535Z,13.63
2023-10-10T19:29:30.153Z,17.67
2023-10-10T19:32:02.011Z,15.90
2023-10-10T19:34:34.491Z,16.85
2023-10-10T19:37:06.293Z,14.90
2023-10-10T19:39:38.055Z,13.35
2023-10-10T19:42:09.852Z,12.90
2023-10-10T19:44:41.682Z,12.80
2023-10-10T19:47:13.487Z,11.85
2023-10-10T19:49:45.299Z,10.75
2023-10-10T19:52:17.072Z,12.93
2023-10-10T19:54:48.857Z,12.98
2023-10-10T19:57:20.642Z,13.75
2023-10-10T19:59:52.433Z,12.43
2023-10-10T20:02:24.375Z,12.35
2023-10-10T20:04:56.988Z,11.80
2023-10-10T20:07:28.983Z,11.15
2023-10-10T20:10:00.741Z,11.65
2023-10-10T20:12:32.514Z,11.10
2023-10-10T20:15:04.730Z,11.95
2023-10-10T20:17:37.723Z,12.00
2023-10-10T20:20:10.824Z,11.38
2023-10-10T20:22:45.682Z,11.35
2023-10-10T20:25:20.264Z,10.63
2023-10-10T20:27:52.133Z,11.32
2023-10-10T20:30:27.652Z,11.75
2023-10-10T20:33:02.700Z,10.90
2023-10-10T20:35:36.293Z,11.77
2023-10-10T20:38:08.125Z,11.00
2023-10-10T20:40:44.540Z,11.43
2023-10-10T20:43:16.541Z,11.20
2023-10-10T20:45:48.394Z,11.35
2023-10-10T20:48:23.355Z,11.13
2023-10-10T20:50:55.379Z,11.40
2023-10-10T20:53:29.339Z,10.75
2023-10-10T20:56:03.350Z,9.57
2023-10-10T20:58:35.989Z,10.90
2023-10-10T21:01:13.326Z,9.40
2023-10-10T21:03:45.410Z,10.65
2023-10-10T21:06:17.233Z,10.48
2023-10-10T21:08:50.696Z,10.77
2023-10-10T21:11:23.136Z,12.95
2023-10-10T21:13:54.953Z,13.52
2023-10-10T21:16:26.850Z,14.05
2023-10-10T21:18:59.089Z,13.23
2023-10-10T21:21:30.943Z,15.90
2023-10-10T21:24:02.745Z,14.82
2023-10-10T21:26:34.678Z,14.63
2023-10-10T21:29:06.449Z,13.13
2023-10-10T21:31:38.205Z,12.35
2023-10-10T21:34:11.799Z,12.52
2023-10-10T21:36:43.606Z,11.82
2023-10-10T21:39:19.964Z,10.00
2023-10-10T21:41:51.818Z,10.48
2023-10-10T21:44:23.644Z,9.32
2023-10-10T21:46:55.431Z,9.82
2023-10-10T21:49:30.183Z,10.63
2023-10-10T21:52:02.419Z,9.95
2023-10-10T21:54:34.215Z,10.40
2023-10-10T21:57:05.996Z,10.30
2023-10-10T21:59:39.123Z,10.95
2023-10-10T22:02:11.096Z,9.85
2023-10-10T22:04:44.274Z,11.25
2023-10-10T22:15:38.785Z,10.07
2023-10-10T22:18:13.248Z,10.82
2023-10-10T22:20:45.478Z,10.70
2023-10-10T22:23:17.389Z,9.80
2023-10-10T22:25:49.546Z,12.40
2023-10-10T22:28:21.479Z,10.98
2023-10-10T22:30:53.438Z,10.38
2023-10-10T22:33:25.395Z,9.98
2023-10-10T22:35:57.557Z,10.30
2023-10-10T22:38:29.503Z,10.55
2023-10-10T22:41:01.409Z,9.95
2023-10-10T22:43:33.323Z,10.73
2023-10-10T22:46:05.302Z,10.30
2023-10-10T22:48:37.806Z,11.13
2023-10-10T22:51:11.186Z,10.60
2023-10-10T22:53:43.716Z,11.93
2023-10-10T22:56:19.588Z,10.23
2023-10-10T22:58:51.557Z,11.10
2023-10-10T23:01:23.762Z,10.48
2023-10-10T23:03:56.791Z,12.20
2023-10-10T23:06:29.954Z,10.68
2023-10-10T23:09:08.963Z,11.57
2023-10-10T23:11:41.064Z,11.35
2023-10-10T23:14:14.279Z,10.98
2023-10-10T23:16:46.371Z,10.50
2023-10-10T23:19:19.042Z,10.88
2023-10-10T23:21:50.956Z,9.95
2023-10-10T23:24:22.862Z,9.77
2023-10-10T23:26:55.956Z,11.35
2023-10-10T23:29:27.912Z,10.10
2023-10-10T23:32:00.587Z,10.05
2023-10-10T23:34:32.600Z,11.55
2023-10-10T23:37:05.123Z,10.40
2023-10-10T23:39:37.059Z,10.55
2023-10-10T23:42:10.810Z,10.40
2023-10-10T23:44:42.795Z,10.35
2023-10-10T23:47:14.738Z,10.93
2023-10-10T23:49:48.480Z,10.63
2023-10-10T23:52:22.539Z,9.60
2023-10-10T23:54:54.463Z,10.45
2023-10-10T23:57:26.391Z,12.45
2023-10-10T23:59:58.454Z,13.10
